Hidden Valley, Valles Caldera, New Mexico Weather observations

Data are for 10 minute period ending at time listed.
 Day   Time   Solar   Ave.   Ave.  Ave.  Vector  Max.   Baro.   Total    
  of    of     Rad.   Air    Rel.  Wind   Wind   Wind  Press.  Precip.   
Year   Day            Temp.  Hum.  Speed  Dir.   Gust                    
2026   (MST)  Kw/m2    F      %     mph   deg.    mph    mb.     in.     
-------------------------------------------------------------------------
 248   14:30   -8190.00   75.3    -1    2.8   238     5.9     0.0    0.01 
 248   14:40   -8190.00   74.9    -1    2.9   215     5.7     0.0    0.01 
 248   14:50   -8190.00   75.7    -1    2.4   267     5.3     0.0    0.01 
 248   15:00   -8190.00   75.5    -1    2.7   274     5.5     0.0    0.01 
 248   15:10   -8190.00   75.0    -1    2.4   212     5.0     0.0    0.01 
 248   15:20   -8190.00   75.6    -1    2.0   258     4.4     0.0    0.01 
 248   15:30   -8190.00   75.7    -1    2.7   252     5.6     0.0    0.01 
 248   15:40   -8190.00   75.8    -1    2.6   275     5.4     0.0    0.01 
 248   15:50   -8190.00   75.6    -1    2.2   305     6.0     0.0    0.01 
 248   16:00   -8190.00   74.8    -2    2.3   258     5.4     0.0    0.01 
 248   16:10   -8190.00   74.5    -2    2.7   228     5.8     0.0    0.01 
 248   16:20   -8190.00   73.9    -2    2.2   240     5.4     0.0    0.01 
 248   16:30   -8190.00   74.7    -1    1.7   244     5.1     0.0    0.01 
 248   16:40   -8190.00   75.1    -1    1.5   277     3.9     0.0    0.01 
 248   16:50   -8190.00   73.6    -2    1.9   247     5.0     0.0    0.01 
 248   17:00   -8190.00   73.5    -2    3.0   237     5.8     0.0    0.01 
 248   17:10   -8190.00   74.0    -1    1.6   263     3.8     0.0    0.01 
 248   17:20   -8190.00   74.1    -1    1.3   239     2.3     0.0    0.01 
 248   17:30   -8190.00   72.2    -2    1.1   270     3.6     0.0    0.01 
 248   17:40   -8190.00   71.1    -2    1.1   246     2.3     0.0    0.01 
 248   17:50   -8190.00   71.2    -2    1.8   249     3.6     0.0    0.01 
 248   18:00   -8190.00   70.3    -2    1.5   233     3.0     0.0    0.01 
 248   18:10   -8190.00   70.2    -2    2.2   231     5.5     0.0    0.01 
 248   18:20   -8190.00   69.2    -2    1.5   244     2.8     0.0    0.01 
 248   18:30   -8190.00   68.6    -2    1.4   230     3.0     0.0    0.01 
 248   18:40   -8190.00   65.8    -3    1.2   254     2.0     0.0    0.01 
 248   18:50   -8190.00   63.9    -3    0.4   246     1.6     0.0    0.01 
 248   19:00   -8190.00   60.5    -4    0.6   329     1.6     0.0    0.01 
 248   19:10   -8190.00   58.0    -4    0.7   360     1.4     0.0    0.01 
 248   19:20   -8190.00   56.4    -4    0.3   330     1.0     0.0    0.01 
 248   19:30   -8190.00   56.9    -3    0.6   216     1.6     0.0    0.01 
 248   19:40   -8190.00   56.5    -2    0.1   317     1.7     0.0    0.01 
 248   19:50   -8190.00   54.8    -3    0.6   346     1.9     0.0    0.01 
 248   20:00   -8190.00   54.9    -2    1.0   180     1.4     0.0    0.01 
 248   20:10   -8190.00   54.4    -2    0.2   168     1.2     0.0    0.01 
 248   20:20   -8190.00   51.3    -2    0.5    11     1.3     0.0    0.01 
 248   20:30   -8190.00   50.3     1    0.3   353     0.8     0.0    0.01 
 248   20:40   -8190.00   50.0     4    0.2   132     1.6     0.0    0.01 
 248   20:50   -8190.00   49.0     5    0.1    50     1.4     0.0    0.01 
 248   21:00   5.13   48.0     8    0.5    49     1.6     0.0    0.01 
 248   21:10   5.11   48.1    10    0.5   161     1.4     0.0    0.01 
 248   21:20   4.98   46.6    11    0.5    30     1.9     0.0    0.01 
 248   21:30   4.94   46.4    19    0.2    29     0.7     0.0    0.01 
 248   21:40   4.93   46.2    23    0.4    24     1.3     0.0    0.01 
 248   21:50   4.89   45.2    23    0.2    23     1.0     0.0    0.01 
 248   22:00   4.86   44.4    23    0.0    39     0.5     0.0    0.01 
 248   22:10   4.81   43.9    22    0.1    14     0.8     0.0    0.01 
 248   22:20   4.78   44.2    22    0.2   338     1.1     0.0    0.01 
 248   22:30   4.82   43.6    22    0.0   336     0.1     0.0    0.01 
 248   22:40   4.79   43.9    23    0.1   324     0.4     0.0    0.01 
 248   22:50   4.77   44.1    24    0.1   335     0.5     0.0    0.01 
 248   23:00   4.75   44.8    24    0.1   343     0.6     0.0    0.01 
 248   23:10   4.79   44.9    24    0.0     0     0.0     0.0    0.01 
 248   23:20   4.82   45.3    24    0.0     0     0.0     0.0    0.01 
 248   23:30   4.91   46.1    24    0.7   324     1.3     0.0    0.01 
 248   23:40   4.84   46.3    23    0.8   241     1.2     0.0    0.01 
 248   23:50   4.86   46.5    23    0.3   214     0.8     0.0    0.01 
 249    0:00   4.77   44.8    23    0.1   202     0.5     0.0    0.01 
 249    0:10   4.69   42.4    23    0.8   354     1.8     0.0    0.01 
 249    0:20   4.68   42.2    23    0.4   153     1.3     0.0    0.01 
 249    0:30   4.75   44.4    23    0.2   164     1.0     0.0    0.01 
 249    0:40   4.69   43.0    23    0.3   156     1.0     0.0    0.01 
 249    0:50   4.61   41.3    22    0.3     9     0.9     0.0    0.01 
 249    1:00   4.64   40.3    22    0.6   350     1.4     0.0    0.01 
 249    1:10   4.62   39.6    22    0.4   144     1.1     0.0    0.01 
 249    1:20   4.66   39.7    24    0.5   285     1.0     0.0    0.01 
 249    1:30   4.66   40.7    22    0.3   215     1.0     0.0    0.01 
 249    1:40   4.67   41.2    23    0.1   217     1.0     0.0    0.01 
 249    1:50   4.62   39.5    24    0.8   357     1.9     0.0    0.01 
 249    2:00   4.60   38.5    25    0.4    85     1.3     0.0    0.01 
 249    2:10   4.59   38.7    25    0.1    85     0.6     0.0    0.01 
 249    2:20   4.52   38.9    24    0.0    80     0.2     0.0    0.01 
 249    2:30   4.52   38.5    24    0.0     0     0.0     0.0    0.01 
 249    2:40   4.45   38.4    24    0.1    25     0.5     0.0    0.01 
 249    2:50   4.42   37.5    25    0.6    26     1.0     0.0    0.01 
 249    3:00   4.45   35.9    25    0.1    28     0.6     0.0    0.01 
 249    3:10   4.45   36.4    24    0.3   325     1.3     0.0    0.01 
 249    3:20   4.46   35.6    23    0.0   326     0.1     0.0    0.01 
 249    3:30   4.51   35.7    22    0.1   325     0.5     0.0    0.01 
 249    3:40   4.53   35.4    23    0.0   324     0.3     0.0    0.01 
 249    3:50   4.54   35.2    23    0.1   324     0.5     0.0    0.01 
 249    4:00   4.43   35.4    23    0.5   324     0.9     0.0    0.01 
 249    4:10   4.40   36.6    24    0.0   324     0.4     0.0    0.01 
 249    4:20   4.38   35.6    24    0.0   324     0.4     0.0    0.01 
 249    4:30   4.46   35.5    25    0.3   347     1.2     0.0    0.01 
 249    4:40   4.47   35.3    25    0.2   353     1.1     0.0    0.01 
 249    4:50   4.42   34.8    25    0.7   351     1.5     0.0    0.01 
 249    5:00   4.42   33.7    25    0.0     0     0.0     0.0    0.01 
 249    5:10   4.44   34.2    25    0.1   347     0.4     0.0    0.01 
 249    5:20   4.49   34.4    25    0.0   341     0.3     0.0    0.01 
 249    5:30   4.41   33.9    25    0.0     0     0.0     0.0    0.01 
 249    5:40   4.42   33.7    25    0.0   341     0.5     0.0    0.01 
 249    5:50   4.45   33.1    25    0.0   341     0.5     0.0    0.01 
 249    6:00   4.49   33.1    24    0.1   341     0.4     0.0    0.01 
 249    6:10   4.62   33.1    24    0.1   343     0.5     0.0    0.01 
 249    6:20   4.67   33.5    24    0.1   344     0.6     0.0    0.01 
 249    6:30   -8190.00   34.4    24    0.0     0     0.0     0.0    0.01 
 249    6:40   -8190.00   36.2    24    0.4   341     0.9     0.0    0.01 
 249    6:50   -8190.00   36.5    25    0.2   341     0.7     0.0    0.01 
 249    7:00   -8190.00   37.5    27    0.2   294     0.6     0.0    0.01 
 249    7:10   -8190.00   40.3    24    0.4   228     0.8     0.0    0.01 
 249    7:20   -8190.00   45.0    21    0.0   158     0.1     0.0    0.01 
 249    7:30   -8190.00   46.9    20    0.0   157     0.5     0.0    0.01 
 249    7:40   -8190.00   48.6    19    0.6    64     1.2     0.0    0.01 
 249    7:50   -8190.00   50.7    18    0.6    45     1.4     0.0    0.01 
 249    8:00   -8190.00   52.5    17    0.3   357     0.9     0.0    0.01 
 249    8:10   -8190.00   55.5    17    0.3   112     1.4     0.0    0.01 
 249    8:20   -8190.00   57.2    16    0.1   156     0.8     0.0    0.01 
 249    8:30   -8190.00   59.9    16    0.3    69     1.3     0.0    0.01 
 249    8:40   -8190.00   62.4    15    0.2    52     1.0     0.0    0.01 
 249    8:50   -8190.00   64.3    15    0.3   294     1.0     0.0    0.01 
 249    9:00   -8190.00   65.9    14    0.3     8     1.0     0.0    0.01 
 249    9:10   -8190.00   68.7    13    0.2   189     0.8     0.0    0.01 
 249    9:20   -8190.00   71.2    12    0.6   334     1.6     0.0    0.01 
 249    9:30   -8190.00   71.8    10    0.3   280     1.3     0.0    0.01 
 249    9:40   -8190.00   72.7     9    1.8    78     4.1     0.0    0.01 
 249    9:50   -8190.00   70.9     5    2.2   123     3.4     0.0    0.01 
 249   10:00   -8190.00   72.1     4    1.7    92     3.7     0.0    0.01 
 249   10:10   -8190.00   72.5     3    1.5   125     2.6     0.0    0.01 
 249   10:20   -8190.00   73.4     2    1.6   128     3.5     0.0    0.01 
 249   10:30   -8190.00   72.8     1    2.0   219     3.9     0.0    0.01 
 249   10:40   -8190.00   73.7     1    1.7   148     4.3     0.0    0.01 
 249   10:50   -8190.00   74.0     0    2.5   133     4.4     0.0    0.01 
 249   11:00   -8190.00   73.1    -1    2.1   145     5.5     0.0    0.01 
 249   11:10   -8190.00   73.6    -1    2.3   184     4.3     0.0    0.01 
 249   11:20   -8190.00   74.3    -0    2.1   182     3.3     0.0    0.01 
 249   11:30   -8190.00   74.4    -1    2.8   165     4.8     0.0    0.01 
 249   11:40   -8190.00   72.9    -2    3.3   150     5.5     0.0    0.01 
 249   11:50   -8190.00   73.2    -1    3.6   143     5.8     0.0    0.01 
 249   12:00   -8190.00   73.8    -1    3.2   162     6.1     0.0    0.01 
 249   12:10   -8190.00   74.3    -1    2.4   154     4.8     0.0    0.01 
 249   12:20   -8190.00   74.7    -1    2.6   165     5.4     0.0    0.01 
 249   12:30   -8190.00   75.0    -1    3.2   180     6.2     0.0    0.01 
 249   12:40   -8190.00   74.8    -1    2.5   168     5.5     0.0    0.01 
 249   12:50   -8190.00   75.7    -1    2.3   125     6.4     0.0    0.01 
 249   13:00   -8190.00   77.0     0    3.4   138     6.0     0.0    0.01 
 249   13:10   -8190.00   76.1    -1    3.5   130     6.5     0.0    0.01 
 249   13:20   -8190.00   74.9    -2    3.4   129     6.1     0.0    0.01 
 249   13:30   -8190.00   74.2    -2    3.2   177     5.7     0.0    0.01 
 249   13:40   -8190.00   74.1    -2    3.1   168     5.5     0.0    0.01 
 249   13:50   -8190.00   73.9    -2    3.2   157     7.3     0.0    0.01 
 249   14:00   -8190.00   74.3    -1    2.6   151     5.5     0.0    0.01 
 249   14:10   -8190.00   74.3    -1    2.4   181     4.9     0.0    0.01 
 249   14:20   -8190.00   74.7    -1    2.9   172     5.7     0.0    0.01 

Return to Hidden Valley, Valles Caldera graphs page.


Western Regional Climate Center,wrcc@dri.edu